sensor_id;sensor_type;location;lat;lon;timestamp;pressure;altitude;pressure_sealevel;temperature;humidity
38038;BME280;23843;51.320;12.340;2022-09-13T04:32:37;99837.91;;;14.68;78.76
38038;BME280;23843;51.320;12.340;2022-09-13T04:35:03;99841.31;;;14.70;78.95
38038;BME280;23843;51.320;12.340;2022-09-13T04:37:29;99837.69;;;14.71;79.75
38038;BME280;23843;51.320;12.340;2022-09-13T04:39:54;99837.53;;;14.72;79.29
38038;BME280;23843;51.320;12.340;2022-09-13T04:42:19;99843.03;;;14.71;79.21
38038;BME280;23843;51.320;12.340;2022-09-13T04:44:45;99835.97;;;14.70;79.42
38038;BME280;23843;51.320;12.340;2022-09-13T04:47:10;99834.28;;;14.69;79.74
38038;BME280;23843;51.320;12.340;2022-09-13T04:49:37;99824.47;;;14.69;79.35
38038;BME280;23843;51.320;12.340;2022-09-13T04:52:02;99832.34;;;14.71;79.75
38038;BME280;23843;51.320;12.340;2022-09-13T04:54:28;99824.22;;;14.72;80.82
38038;BME280;23843;51.320;12.340;2022-09-13T04:56:53;99820.34;;;14.76;80.92
38038;BME280;23843;51.320;12.340;2022-09-13T04:59:18;99821.81;;;14.81;81.19
38038;BME280;23843;51.320;12.340;2022-09-13T05:01:44;99823.97;;;14.87;81.84
38038;BME280;23843;51.320;12.340;2022-09-13T05:04:09;99822.63;;;14.92;81.23
38038;BME280;23843;51.320;12.340;2022-09-13T05:06:36;99815.81;;;14.99;80.87
38038;BME280;23843;51.320;12.340;2022-09-13T05:09:02;99817.88;;;15.07;80.39
38038;BME280;23843;51.320;12.340;2022-09-13T05:11:28;99826.34;;;15.12;80.69
38038;BME280;23843;51.320;12.340;2022-09-13T05:13:55;99827.66;;;15.18;80.61
38038;BME280;23843;51.320;12.340;2022-09-13T05:16:21;99822.78;;;15.23;80.29
38038;BME280;23843;51.320;12.340;2022-09-13T05:18:47;99821.44;;;15.29;80.83
38038;BME280;23843;51.320;12.340;2022-09-13T05:21:12;99813.91;;;15.34;80.70
38038;BME280;23843;51.320;12.340;2022-09-13T05:23:39;99807.22;;;15.39;80.46
38038;BME280;23843;51.320;12.340;2022-09-13T05:26:05;99801.34;;;15.46;80.36
38038;BME280;23843;51.320;12.340;2022-09-13T05:28:32;99805.22;;;15.53;80.09
38038;BME280;23843;51.320;12.340;2022-09-13T05:30:59;99801.88;;;15.60;79.76
38038;BME280;23843;51.320;12.340;2022-09-13T05:33:26;99802.94;;;15.69;79.48
38038;BME280;23843;51.320;12.340;2022-09-13T05:35:52;99801.38;;;15.78;79.28
38038;BME280;23843;51.320;12.340;2022-09-13T05:38:18;99800.78;;;15.95;80.09
38038;BME280;23843;51.320;12.340;2022-09-13T05:40:45;99808.84;;;16.05;78.81
38038;BME280;23843;51.320;12.340;2022-09-13T05:43:10;99801.28;;;16.10;78.38
38038;BME280;23843;51.320;12.340;2022-09-13T05:45:35;99807.41;;;16.22;78.42
38038;BME280;23843;51.320;12.340;2022-09-13T05:48:01;99808.06;;;16.45;78.64
38038;BME280;23843;51.320;12.340;2022-09-13T05:50:26;99809.84;;;16.65;78.01
38038;BME280;23843;51.320;12.340;2022-09-13T05:52:52;99816.06;;;16.76;77.33
38038;BME280;23843;51.320;12.340;2022-09-13T05:55:17;99803.59;;;16.86;77.09
38038;BME280;23843;51.320;12.340;2022-09-13T05:57:44;99802.50;;;16.98;76.37
38038;BME280;23843;51.320;12.340;2022-09-13T06:00:10;99793.66;;;17.07;75.88
38038;BME280;23843;51.320;12.340;2022-09-13T06:02:36;99796.47;;;17.16;75.46
38038;BME280;23843;51.320;12.340;2022-09-13T06:05:01;99796.91;;;17.21;75.16
38038;BME280;23843;51.320;12.340;2022-09-13T06:07:27;99784.94;;;17.25;75.09
38038;BME280;23843;51.320;12.340;2022-09-13T06:09:52;99776.63;;;17.28;74.56
38038;BME280;23843;51.320;12.340;2022-09-13T06:12:17;99790.13;;;17.36;74.25
38038;BME280;23843;51.320;12.340;2022-09-13T06:14:44;99786.06;;;17.42;74.18
38038;BME280;23843;51.320;12.340;2022-09-13T06:17:09;99784.25;;;17.42;73.64
38038;BME280;23843;51.320;12.340;2022-09-13T06:19:35;99784.66;;;17.38;73.48
38038;BME280;23843;51.320;12.340;2022-09-13T06:22:00;99790.00;;;17.38;73.65
38038;BME280;23843;51.320;12.340;2022-09-13T06:24:26;99778.75;;;17.34;73.52
38038;BME280;23843;51.320;12.340;2022-09-13T06:26:51;99783.09;;;17.35;73.78
38038;BME280;23843;51.320;12.340;2022-09-13T06:29:17;99799.47;;;17.32;73.70
38038;BME280;23843;51.320;12.340;2022-09-13T06:31:43;99802.97;;;17.23;74.51
38038;BME280;23843;51.320;12.340;2022-09-13T06:34:10;99822.66;;;17.02;76.54
38038;BME280;23843;51.320;12.340;2022-09-13T06:36:35;99820.81;;;16.93;76.45
38038;BME280;23843;51.320;12.340;2022-09-13T06:39:01;99828.00;;;16.93;76.44
38038;BME280;23843;51.320;12.340;2022-09-13T06:41:26;99824.44;;;16.92;77.28
38038;BME280;23843;51.320;12.340;2022-09-13T06:43:53;99819.38;;;16.89;77.30
38038;BME280;23843;51.320;12.340;2022-09-13T06:46:18;99828.13;;;16.91;78.27
38038;BME280;23843;51.320;12.340;2022-09-13T06:48:45;99817.25;;;16.83;78.85
38038;BME280;23843;51.320;12.340;2022-09-13T06:51:13;99810.47;;;16.79;78.74
38038;BME280;23843;51.320;12.340;2022-09-13T06:53:39;99816.25;;;16.84;78.80
38038;BME280;23843;51.320;12.340;2022-09-13T06:56:07;99808.84;;;16.87;79.15
38038;BME280;23843;51.320;12.340;2022-09-13T06:58:35;99807.56;;;16.92;78.97
38038;BME280;23843;51.320;12.340;2022-09-13T07:01:06;99808.13;;;16.95;78.79
38038;BME280;23843;51.320;12.340;2022-09-13T07:03:31;99802.38;;;17.00;78.50
38038;BME280;23843;51.320;12.340;2022-09-13T07:05:58;99799.41;;;17.03;78.43
38038;BME280;23843;51.320;12.340;2022-09-13T07:08:23;99803.06;;;17.02;79.08
38038;BME280;23843;51.320;12.340;2022-09-13T07:10:48;99801.09;;;17.04;79.03
38038;BME280;23843;51.320;12.340;2022-09-13T07:13:14;99798.41;;;17.04;79.46
38038;BME280;23843;51.320;12.340;2022-09-13T07:15:39;99800.25;;;17.03;79.29
38038;BME280;23843;51.320;12.340;2022-09-13T07:18:04;99795.59;;;16.96;81.19
38038;BME280;23843;51.320;12.340;2022-09-13T07:20:30;99800.53;;;16.90;80.32
38038;BME280;23843;51.320;12.340;2022-09-13T07:22:57;99799.22;;;16.85;81.39
38038;BME280;23843;51.320;12.340;2022-09-13T07:25:22;99804.44;;;16.86;80.97
38038;BME280;23843;51.320;12.340;2022-09-13T07:27:47;99810.50;;;16.88;80.55
38038;BME280;23843;51.320;12.340;2022-09-13T07:30:13;99802.59;;;16.87;80.27
38038;BME280;23843;51.320;12.340;2022-09-13T07:32:38;99800.09;;;16.85;80.68
38038;BME280;23843;51.320;12.340;2022-09-13T07:35:04;99797.00;;;16.90;80.58
38038;BME280;23843;51.320;12.340;2022-09-13T07:37:29;99798.41;;;16.94;80.46
38038;BME280;23843;51.320;12.340;2022-09-13T07:39:56;99807.28;;;17.04;80.45
38038;BME280;23843;51.320;12.340;2022-09-13T07:42:21;99800.69;;;17.18;80.64
38038;BME280;23843;51.320;12.340;2022-09-13T07:44:46;99814.69;;;17.31;80.48
38038;BME280;23843;51.320;12.340;2022-09-13T07:47:12;99800.31;;;17.42;80.34
38038;BME280;23843;51.320;12.340;2022-09-13T07:49:37;99796.06;;;17.49;80.28
38038;BME280;23843;51.320;12.340;2022-09-13T07:52:03;99793.28;;;17.51;80.83
38038;BME280;23843;51.320;12.340;2022-09-13T07:54:28;99796.91;;;17.50;80.92
38038;BME280;23843;51.320;12.340;2022-09-13T07:56:55;99794.09;;;17.51;81.07
38038;BME280;23843;51.320;12.340;2022-09-13T07:59:20;99796.06;;;17.49;81.41
38038;BME280;23843;51.320;12.340;2022-09-13T08:01:47;99798.19;;;17.55;81.38
38038;BME280;23843;51.320;12.340;2022-09-13T08:04:14;99797.75;;;17.60;81.65
38038;BME280;23843;51.320;12.340;2022-09-13T08:06:40;99793.69;;;17.66;82.39
38038;BME280;23843;51.320;12.340;2022-09-13T08:09:07;99795.66;;;17.73;82.31
38038;BME280;23843;51.320;12.340;2022-09-13T08:11:34;99785.78;;;17.84;81.78
38038;BME280;23843;51.320;12.340;2022-09-13T08:14:02;99790.59;;;17.90;81.50
38038;BME280;23843;51.320;12.340;2022-09-13T08:16:28;99788.44;;;17.93;81.23
38038;BME280;23843;51.320;12.340;2022-09-13T08:18:56;99791.84;;;17.95;81.05
38038;BME280;23843;51.320;12.340;2022-09-13T08:21:23;99792.94;;;18.03;81.64
38038;BME280;23843;51.320;12.340;2022-09-13T08:23:49;99797.72;;;18.09;81.80
38038;BME280;23843;51.320;12.340;2022-09-13T08:26:15;99791.19;;;18.21;81.10
38038;BME280;23843;51.320;12.340;2022-09-13T08:28:41;99799.06;;;18.32;81.05
38038;BME280;23843;51.320;12.340;2022-09-13T08:31:09;99803.56;;;18.42;80.74
38038;BME280;23843;51.320;12.340;2022-09-13T08:33:36;99799.00;;;18.52;79.78
38038;BME280;23843;51.320;12.340;2022-09-13T08:36:03;99804.31;;;18.61;79.37
38038;BME280;23843;51.320;12.340;2022-09-13T08:38:29;99804.28;;;18.71;78.83
38038;BME280;23843;51.320;12.340;2022-09-13T08:40:57;99803.41;;;18.80;78.18
38038;BME280;23843;51.320;12.340;2022-09-13T08:43:31;99799.13;;;18.88;78.24
38038;BME280;23843;51.320;12.340;2022-09-13T08:46:01;99797.13;;;18.90;78.00
38038;BME280;23843;51.320;12.340;2022-09-13T08:48:32;99792.63;;;18.90;77.51
38038;BME280;23843;51.320;12.340;2022-09-13T08:51:05;99799.66;;;18.91;77.29
38038;BME280;23843;51.320;12.340;2022-09-13T08:53:39;99793.16;;;18.94;77.16
38038;BME280;23843;51.320;12.340;2022-09-13T08:56:09;99790.16;;;18.97;77.35
38038;BME280;23843;51.320;12.340;2022-09-13T08:58:47;99785.59;;;19.07;76.80
38038;BME280;23843;51.320;12.340;2022-09-13T09:01:26;99781.31;;;19.14;77.00
38038;BME280;23843;51.320;12.340;2022-09-13T09:03:58;99780.94;;;19.27;76.84
38038;BME280;23843;51.320;12.340;2022-09-13T09:06:26;99784.38;;;19.37;76.72
38038;BME280;23843;51.320;12.340;2022-09-13T09:08:56;99783.47;;;19.46;76.22
38038;BME280;23843;51.320;12.340;2022-09-13T09:11:28;99789.34;;;19.50;76.15
38038;BME280;23843;51.320;12.340;2022-09-13T09:14:03;99787.38;;;19.52;76.02
38038;BME280;23843;51.320;12.340;2022-09-13T09:16:36;99780.19;;;19.71;76.30
38038;BME280;23843;51.320;12.340;2022-09-13T09:19:14;99774.28;;;19.93;75.52
38038;BME280;23843;51.320;12.340;2022-09-13T09:21:41;99771.22;;;20.14;74.58
38038;BME280;23843;51.320;12.340;2022-09-13T09:24:10;99761.94;;;20.35;74.26
38038;BME280;23843;51.320;12.340;2022-09-13T09:26:40;99761.47;;;20.47;72.61
38038;BME280;23843;51.320;12.340;2022-09-13T09:29:14;99758.88;;;20.64;72.78
38038;BME280;23843;51.320;12.340;2022-09-13T09:31:46;99767.34;;;20.77;71.39
38038;BME280;23843;51.320;12.340;2022-09-13T09:34:21;99766.00;;;20.81;71.93
38038;BME280;23843;51.320;12.340;2022-09-13T09:36:55;99762.84;;;20.94;71.88
38038;BME280;23843;51.320;12.340;2022-09-13T09:39:29;99761.38;;;21.08;72.19
38038;BME280;23843;51.320;12.340;2022-09-13T09:41:55;99750.28;;;21.35;71.99
38038;BME280;23843;51.320;12.340;2022-09-13T09:44:23;99753.00;;;21.60;67.30
38038;BME280;23843;51.320;12.340;2022-09-13T09:46:54;99749.97;;;21.55;66.07
38038;BME280;23843;51.320;12.340;2022-09-13T09:49:25;99754.84;;;21.35;66.22
38038;BME280;23843;51.320;12.340;2022-09-13T09:51:56;99751.47;;;21.33;65.66
38038;BME280;23843;51.320;12.340;2022-09-13T09:54:23;99754.00;;;21.34;66.33
38038;BME280;23843;51.320;12.340;2022-09-13T09:56:52;99753.19;;;21.42;66.08
38038;BME280;23843;51.320;12.340;2022-09-13T09:59:24;99745.78;;;21.69;67.32
38038;BME280;23843;51.320;12.340;2022-09-13T10:01:50;99740.38;;;21.85;66.28
38038;BME280;23843;51.320;12.340;2022-09-13T10:04:19;99744.22;;;21.91;65.37
38038;BME280;23843;51.320;12.340;2022-09-13T10:06:47;99740.16;;;22.03;65.66
38038;BME280;23843;51.320;12.340;2022-09-13T10:09:15;99743.19;;;22.08;63.48
38038;BME280;23843;51.320;12.340;2022-09-13T10:11:44;99736.28;;;22.22;65.56
38038;BME280;23843;51.320;12.340;2022-09-13T10:14:34;99743.91;;;22.50;64.74
38038;BME280;23843;51.320;12.340;2022-09-13T10:17:21;99736.22;;;22.78;64.33
38038;BME280;23843;51.320;12.340;2022-09-13T10:19:53;99732.06;;;22.98;62.87
38038;BME280;23843;51.320;12.340;2022-09-13T10:22:20;99725.59;;;23.07;62.04
38038;BME280;23843;51.320;12.340;2022-09-13T10:24:45;99728.81;;;23.26;61.58
38038;BME280;23843;51.320;12.340;2022-09-13T10:27:31;99726.28;;;23.47;56.78
38038;BME280;23843;51.320;12.340;2022-09-13T10:30:01;99724.44;;;23.63;56.65
38038;BME280;23843;51.320;12.340;2022-09-13T10:32:27;99722.53;;;23.71;54.24
38038;BME280;23843;51.320;12.340;2022-09-13T10:34:53;99715.94;;;23.74;55.99
38038;BME280;23843;51.320;12.340;2022-09-13T10:37:24;99707.13;;;23.72;54.28
38038;BME280;23843;51.320;12.340;2022-09-13T10:39:56;99709.84;;;23.72;53.29
38038;BME280;23843;51.320;12.340;2022-09-13T10:42:25;99715.03;;;23.59;53.60
38038;BME280;23843;51.320;12.340;2022-09-13T10:44:54;99706.28;;;23.57;55.36
38038;BME280;23843;51.320;12.340;2022-09-13T10:47:24;99703.84;;;23.62;54.35
38038;BME280;23843;51.320;12.340;2022-09-13T10:49:52;99707.13;;;23.72;55.09
38038;BME280;23843;51.320;12.340;2022-09-13T10:52:31;99708.16;;;23.71;54.42
38038;BME280;23843;51.320;12.340;2022-09-13T10:55:26;99716.78;;;23.52;51.91
38038;BME280;23843;51.320;12.340;2022-09-13T10:57:53;99710.91;;;23.48;52.62
38038;BME280;23843;51.320;12.340;2022-09-13T11:00:20;99712.00;;;23.39;50.89
38038;BME280;23843;51.320;12.340;2022-09-13T11:03:06;99707.47;;;23.31;52.88
38038;BME280;23843;51.320;12.340;2022-09-13T11:05:39;99709.72;;;23.27;53.75
38038;BME280;23843;51.320;12.340;2022-09-13T11:08:29;99704.16;;;23.29;53.14
38038;BME280;23843;51.320;12.340;2022-09-13T11:11:05;99706.78;;;23.37;54.01
38038;BME280;23843;51.320;12.340;2022-09-13T11:13:43;99704.66;;;23.47;53.12
38038;BME280;23843;51.320;12.340;2022-09-13T11:16:25;99702.63;;;23.49;52.33
38038;BME280;23843;51.320;12.340;2022-09-13T11:19:12;99692.88;;;23.63;53.36
38038;BME280;23843;51.320;12.340;2022-09-13T11:21:57;99689.72;;;23.75;52.00
38038;BME280;23843;51.320;12.340;2022-09-13T11:24:42;99681.53;;;23.83;52.98
38038;BME280;23843;51.320;12.340;2022-09-13T11:27:17;99685.38;;;23.88;52.56
38038;BME280;23843;51.320;12.340;2022-09-13T11:30:00;99679.84;;;23.97;52.59
38038;BME280;23843;51.320;12.340;2022-09-13T11:32:35;99683.69;;;24.02;52.25
38038;BME280;23843;51.320;12.340;2022-09-13T11:35:17;99683.50;;;24.04;51.85
38038;BME280;23843;51.320;12.340;2022-09-13T11:37:55;99682.94;;;23.93;52.05
38038;BME280;23843;51.320;12.340;2022-09-13T11:40:34;99685.75;;;23.85;52.96
38038;BME280;23843;51.320;12.340;2022-09-13T11:43:16;99674.69;;;23.72;51.49
38038;BME280;23843;51.320;12.340;2022-09-13T11:45:48;99666.78;;;23.70;52.62
38038;BME280;23843;51.320;12.340;2022-09-13T11:48:28;99659.56;;;23.63;52.06
38038;BME280;23843;51.320;12.340;2022-09-13T11:51:06;99654.63;;;23.52;52.65
38038;BME280;23843;51.320;12.340;2022-09-13T11:53:47;99655.03;;;23.40;52.93
38038;BME280;23843;51.320;12.340;2022-09-13T11:56:20;99654.31;;;23.32;53.17
38038;BME280;23843;51.320;12.340;2022-09-13T11:58:50;99656.13;;;23.31;53.23
38038;BME280;23843;51.320;12.340;2022-09-13T12:01:20;99651.47;;;23.25;53.76
38038;BME280;23843;51.320;12.340;2022-09-13T12:03:53;99654.84;;;23.27;53.80
38038;BME280;23843;51.320;12.340;2022-09-13T12:06:24;99648.03;;;23.31;53.70
38038;BME280;23843;51.320;12.340;2022-09-13T12:08:55;99654.59;;;23.37;53.53
38038;BME280;23843;51.320;12.340;2022-09-13T12:11:25;99656.66;;;23.49;53.90
38038;BME280;23843;51.320;12.340;2022-09-13T12:13:54;99648.00;;;23.54;54.00
38038;BME280;23843;51.320;12.340;2022-09-13T12:16:22;99640.91;;;23.53;53.09
38038;BME280;23843;51.320;12.340;2022-09-13T12:18:52;99638.56;;;23.50;53.04
38038;BME280;23843;51.320;12.340;2022-09-13T12:21:21;99638.69;;;23.57;52.52
38038;BME280;23843;51.320;12.340;2022-09-13T12:23:53;99632.06;;;23.59;52.19
38038;BME280;23843;51.320;12.340;2022-09-13T12:26:27;99635.59;;;23.60;52.94
38038;BME280;23843;51.320;12.340;2022-09-13T12:28:57;99628.16;;;23.62;52.20
38038;BME280;23843;51.320;12.340;2022-09-13T12:31:25;99625.34;;;23.55;51.85
38038;BME280;23843;51.320;12.340;2022-09-13T12:33:51;99634.31;;;23.56;52.43
38038;BME280;23843;51.320;12.340;2022-09-13T12:36:45;99633.94;;;23.59;52.74
38038;BME280;23843;51.320;12.340;2022-09-13T12:39:27;99633.28;;;23.57;52.23
38038;BME280;23843;51.320;12.340;2022-09-13T12:42:10;99638.50;;;23.58;52.30
38038;BME280;23843;51.320;12.340;2022-09-13T12:44:50;99625.00;;;23.58;52.15
38038;BME280;23843;51.320;12.340;2022-09-13T12:47:33;99620.22;;;23.60;51.88
38038;BME280;23843;51.320;12.340;2022-09-13T12:50:17;99630.56;;;23.57;52.29
38038;BME280;23843;51.320;12.340;2022-09-13T12:52:50;99626.53;;;23.53;52.06
38038;BME280;23843;51.320;12.340;2022-09-13T12:55:40;99627.38;;;23.53;52.78
38038;BME280;23843;51.320;12.340;2022-09-13T12:58:25;99636.63;;;23.59;53.27
38038;BME280;23843;51.320;12.340;2022-09-13T13:01:06;99626.28;;;23.62;52.22
38038;BME280;23843;51.320;12.340;2022-09-13T13:03:35;99625.00;;;23.58;52.57
38038;BME280;23843;51.320;12.340;2022-09-13T13:06:09;99623.13;;;23.59;52.23
38038;BME280;23843;51.320;12.340;2022-09-13T13:08:48;99624.78;;;23.60;52.08
38038;BME280;23843;51.320;12.340;2022-09-13T13:11:22;99619.75;;;23.57;51.67
38038;BME280;23843;51.320;12.340;2022-09-13T13:13:56;99617.06;;;23.57;51.43
38038;BME280;23843;51.320;12.340;2022-09-13T13:16:25;99608.28;;;23.55;50.23
38038;BME280;23843;51.320;12.340;2022-09-13T13:18:52;99613.13;;;23.59;50.93
38038;BME280;23843;51.320;12.340;2022-09-13T13:21:27;99614.72;;;23.54;49.89
38038;BME280;23843;51.320;12.340;2022-09-13T13:26:56;99604.38;;;23.57;50.02
38038;BME280;23843;51.320;12.340;2022-09-13T13:29:24;99604.84;;;23.61;50.02
38038;BME280;23843;51.320;12.340;2022-09-13T13:32:10;99595.69;;;23.62;49.34
38038;BME280;23843;51.320;12.340;2022-09-13T13:34:42;99594.38;;;23.72;50.08
38038;BME280;23843;51.320;12.340;2022-09-13T13:37:27;99588.09;;;23.80;49.22
38038;BME280;23843;51.320;12.340;2022-09-13T13:40:20;99586.94;;;23.89;49.75
38038;BME280;23843;51.320;12.340;2022-09-13T13:42:47;99587.22;;;23.95;49.98
38038;BME280;23843;51.320;12.340;2022-09-13T13:45:23;99578.34;;;24.01;49.39
38038;BME280;23843;51.320;12.340;2022-09-13T13:47:55;99576.03;;;23.98;49.25
38038;BME280;23843;51.320;12.340;2022-09-13T13:50:30;99572.50;;;23.97;49.64
38038;BME280;23843;51.320;12.340;2022-09-13T13:52:57;99576.03;;;23.98;49.80
38038;BME280;23843;51.320;12.340;2022-09-13T13:55:39;99571.47;;;23.98;49.37
38038;BME280;23843;51.320;12.340;2022-09-13T13:58:14;99567.28;;;23.96;49.55
38038;BME280;23843;51.320;12.340;2022-09-13T14:00:50;99565.13;;;23.91;49.27
38038;BME280;23843;51.320;12.340;2022-09-13T14:03:25;99561.13;;;23.87;49.80
38038;BME280;23843;51.320;12.340;2022-09-13T14:05:56;99559.44;;;23.86;50.47
38038;BME280;23843;51.320;12.340;2022-09-13T14:08:31;99567.09;;;23.82;50.08
38038;BME280;23843;51.320;12.340;2022-09-13T14:11:09;99570.16;;;23.79;50.17
38038;BME280;23843;51.320;12.340;2022-09-13T14:13:57;99565.69;;;23.71;49.86
38038;BME280;23843;51.320;12.340;2022-09-13T14:16:36;99559.59;;;23.69;50.03
38038;BME280;23843;51.320;12.340;2022-09-13T14:19:17;99560.16;;;23.65;49.31
38038;BME280;23843;51.320;12.340;2022-09-13T14:21:44;99569.78;;;23.67;49.83
38038;BME280;23843;51.320;12.340;2022-09-13T14:24:18;99566.63;;;23.64;49.55
38038;BME280;23843;51.320;12.340;2022-09-13T14:26:44;99564.66;;;23.58;49.56
38038;BME280;23843;51.320;12.340;2022-09-13T14:29:14;99560.00;;;23.52;49.56
38038;BME280;23843;51.320;12.340;2022-09-13T14:31:44;99552.91;;;23.50;49.85
38038;BME280;23843;51.320;12.340;2022-09-13T14:34:19;99550.84;;;23.53;49.95
38038;BME280;23843;51.320;12.340;2022-09-13T14:36:50;99556.91;;;23.55;50.30
38038;BME280;23843;51.320;12.340;2022-09-13T14:39:16;99551.50;;;23.55;50.14
38038;BME280;23843;51.320;12.340;2022-09-13T14:41:41;99548.97;;;23.53;49.50
38038;BME280;23843;51.320;12.340;2022-09-13T14:44:14;99540.03;;;23.53;50.61
38038;BME280;23843;51.320;12.340;2022-09-13T14:46:42;99535.00;;;23.49;50.16
38038;BME280;23843;51.320;12.340;2022-09-13T14:49:14;99548.91;;;23.46;50.02
38038;BME280;23843;51.320;12.340;2022-09-13T14:51:46;99543.84;;;23.43;50.86
38038;BME280;23843;51.320;12.340;2022-09-13T14:54:15;99544.06;;;23.42;50.96
38038;BME280;23843;51.320;12.340;2022-09-13T14:56:45;99542.56;;;23.39;50.92
38038;BME280;23843;51.320;12.340;2022-09-13T14:59:14;99539.19;;;23.37;51.03
38038;BME280;23843;51.320;12.340;2022-09-13T15:01:40;99537.06;;;23.33;51.47
38038;BME280;23843;51.320;12.340;2022-09-13T15:04:07;99528.50;;;23.29;51.96
38038;BME280;23843;51.320;12.340;2022-09-13T15:06:35;99539.84;;;23.24;51.74
38038;BME280;23843;51.320;12.340;2022-09-13T15:09:14;99538.38;;;23.22;51.80
38038;BME280;23843;51.320;12.340;2022-09-13T15:11:57;99542.28;;;23.19;51.95
38038;BME280;23843;51.320;12.340;2022-09-13T15:14:27;99542.81;;;23.15;52.40
38038;BME280;23843;51.320;12.340;2022-09-13T15:16:54;99544.22;;;23.11;52.24
38038;BME280;23843;51.320;12.340;2022-09-13T15:19:39;99536.47;;;23.07;52.35
38038;BME280;23843;51.320;12.340;2022-09-13T15:22:12;99540.38;;;23.05;52.46
38038;BME280;23843;51.320;12.340;2022-09-13T15:24:43;99529.75;;;23.03;53.08
38038;BME280;23843;51.320;12.340;2022-09-13T15:27:16;99527.06;;;23.03;53.04
38038;BME280;23843;51.320;12.340;2022-09-13T15:29:47;99525.00;;;23.05;52.68
38038;BME280;23843;51.320;12.340;2022-09-13T15:32:19;99518.41;;;23.08;52.63
38038;BME280;23843;51.320;12.340;2022-09-13T15:34:47;99517.03;;;23.12;52.56
38038;BME280;23843;51.320;12.340;2022-09-13T15:37:13;99519.72;;;23.12;52.80
38038;BME280;23843;51.320;12.340;2022-09-13T15:39:44;99529.50;;;23.13;52.79
38038;BME280;23843;51.320;12.340;2022-09-13T15:42:09;99533.41;;;23.11;53.17
38038;BME280;23843;51.320;12.340;2022-09-13T15:44:35;99531.06;;;23.07;52.99
38038;BME280;23843;51.320;12.340;2022-09-13T15:47:02;99531.78;;;23.01;53.05
38038;BME280;23843;51.320;12.340;2022-09-13T15:49:32;99544.03;;;22.89;53.76
38038;BME280;23843;51.320;12.340;2022-09-13T15:52:00;99540.91;;;22.77;54.43
38038;BME280;23843;51.320;12.340;2022-09-13T15:54:35;99544.38;;;22.71;54.85
38038;BME280;23843;51.320;12.340;2022-09-13T15:57:00;99544.06;;;22.66;55.02
38038;BME280;23843;51.320;12.340;2022-09-13T15:59:26;99544.44;;;22.63;54.87
38038;BME280;23843;51.320;12.340;2022-09-13T16:01:52;99547.69;;;22.58;55.62
38038;BME280;23843;51.320;12.340;2022-09-13T16:04:18;99555.47;;;22.53;56.49
38038;BME280;23843;51.320;12.340;2022-09-13T16:06:44;99554.50;;;22.46;56.59
38038;BME280;23843;51.320;12.340;2022-09-13T16:09:15;99548.16;;;22.39;57.14
38038;BME280;23843;51.320;12.340;2022-09-13T16:11:41;99541.44;;;22.35;57.10
38038;BME280;23843;51.320;12.340;2022-09-13T16:14:06;99547.53;;;22.29;57.49
38038;BME280;23843;51.320;12.340;2022-09-13T16:16:31;99554.13;;;22.26;57.52
38038;BME280;23843;51.320;12.340;2022-09-13T16:18:57;99559.38;;;22.19;58.13
38038;BME280;23843;51.320;12.340;2022-09-13T16:21:22;99556.50;;;22.21;58.14
38038;BME280;23843;51.320;12.340;2022-09-13T16:23:47;99554.69;;;22.21;58.84
38038;BME280;23843;51.320;12.340;2022-09-13T16:26:14;99561.41;;;22.17;58.75
38038;BME280;23843;51.320;12.340;2022-09-13T16:28:40;99560.75;;;22.15;58.57
38038;BME280;23843;51.320;12.340;2022-09-13T16:31:05;99560.56;;;22.17;58.14
38038;BME280;23843;51.320;12.340;2022-09-13T16:33:30;99563.44;;;22.15;58.83
38038;BME280;23843;51.320;12.340;2022-09-13T16:35:56;99559.69;;;22.16;58.29
38038;BME280;23843;51.320;12.340;2022-09-13T16:38:21;99560.91;;;22.14;58.93
38038;BME280;23843;51.320;12.340;2022-09-13T16:40:46;99562.47;;;22.08;59.12
38038;BME280;23843;51.320;12.340;2022-09-13T16:43:13;99558.44;;;22.04;59.28
38038;BME280;23843;51.320;12.340;2022-09-13T16:45:39;99558.63;;;22.02;59.39
38038;BME280;23843;51.320;12.340;2022-09-13T16:48:05;99559.44;;;22.03;59.80
38038;BME280;23843;51.320;12.340;2022-09-13T16:50:31;99564.34;;;21.99;59.86
38038;BME280;23843;51.320;12.340;2022-09-13T16:52:56;99561.69;;;21.91;60.20
38038;BME280;23843;51.320;12.340;2022-09-13T16:55:21;99559.19;;;21.90;60.08
38038;BME280;23843;51.320;12.340;2022-09-13T16:57:47;99557.50;;;21.89;59.50
38038;BME280;23843;51.320;12.340;2022-09-13T17:00:15;99556.16;;;21.85;60.38
38038;BME280;23843;51.320;12.340;2022-09-13T17:02:40;99561.91;;;21.82;60.21
38038;BME280;23843;51.320;12.340;2022-09-13T17:05:06;99559.06;;;21.75;60.48
38038;BME280;23843;51.320;12.340;2022-09-13T17:07:32;99558.94;;;21.68;60.51
38038;BME280;23843;51.320;12.340;2022-09-13T17:09:57;99561.13;;;21.65;61.02
38038;BME280;23843;51.320;12.340;2022-09-13T17:12:22;99556.94;;;21.62;60.18
38038;BME280;23843;51.320;12.340;2022-09-13T17:14:48;99559.63;;;21.62;60.50
38038;BME280;23843;51.320;12.340;2022-09-13T17:17:15;99557.63;;;21.56;61.43
38038;BME280;23843;51.320;12.340;2022-09-13T17:19:42;99555.47;;;21.51;61.46
38038;BME280;23843;51.320;12.340;2022-09-13T17:22:09;99554.47;;;21.44;61.59
38038;BME280;23843;51.320;12.340;2022-09-13T17:24:36;99558.50;;;21.40;62.27
38038;BME280;23843;51.320;12.340;2022-09-13T17:27:03;99564.72;;;21.32;62.81
38038;BME280;23843;51.320;12.340;2022-09-13T17:29:29;99558.66;;;21.30;62.49
38038;BME280;23843;51.320;12.340;2022-09-13T17:31:54;99555.81;;;21.32;62.37
38038;BME280;23843;51.320;12.340;2022-09-13T17:34:21;99559.50;;;21.31;62.70
38038;BME280;23843;51.320;12.340;2022-09-13T17:36:46;99551.25;;;21.32;62.11
38038;BME280;23843;51.320;12.340;2022-09-13T17:39:11;99554.97;;;21.31;62.41